createdAt,value
2019-01-30T00:03:30.339Z,11.50
2019-01-30T00:07:32.817Z,10.30
2019-01-30T00:11:35.237Z,10.10
2019-01-30T00:15:37.743Z,9.43
2019-01-30T00:19:40.190Z,10.83
2019-01-30T00:23:42.738Z,11.13
2019-01-30T00:27:45.171Z,9.83
2019-01-30T00:31:47.701Z,10.63
2019-01-30T00:35:50.099Z,10.77
2019-01-30T00:39:53.068Z,10.47
2019-01-30T00:43:55.481Z,10.40
2019-01-30T00:47:58.075Z,11.50
2019-01-30T00:52:00.962Z,10.37
2019-01-30T00:56:03.670Z,10.67
2019-01-30T01:00:14.600Z,11.47
2019-01-30T01:04:13.881Z,11.53
2019-01-30T01:08:16.343Z,9.67
2019-01-30T01:12:19.104Z,9.80
2019-01-30T01:16:22.882Z,11.07
2019-01-30T01:20:25.568Z,10.40
2019-01-30T01:24:28.339Z,10.03
2019-01-30T01:28:30.832Z,10.90
2019-01-30T01:32:33.442Z,10.70
2019-01-30T01:36:36.114Z,10.87
2019-01-30T01:40:38.739Z,11.37
2019-01-30T01:44:41.168Z,10.27
2019-01-30T01:48:44.122Z,9.80
2019-01-30T01:52:47.900Z,10.23
2019-01-30T01:56:50.602Z,10.63
2019-01-30T02:00:53.083Z,9.37
2019-01-30T02:04:55.958Z,9.30
2019-01-30T02:08:58.650Z,9.33
2019-01-30T02:13:01.022Z,11.17
2019-01-30T02:17:03.483Z,9.83
2019-01-30T02:21:05.926Z,10.83
2019-01-30T02:25:09.992Z,10.37
2019-01-30T02:29:12.412Z,10.90
2019-01-30T02:33:14.882Z,9.83
2019-01-30T02:37:17.416Z,10.20
2019-01-30T02:41:20.068Z,9.63
2019-01-30T02:45:24.602Z,10.33
2019-01-30T02:49:27.171Z,9.60
2019-01-30T02:53:29.677Z,9.60
2019-01-30T02:57:32.298Z,10.70
2019-01-30T03:01:42.844Z,11.57
2019-01-30T03:05:45.527Z,10.40
2019-01-30T03:09:47.958Z,11.63
2019-01-30T03:13:50.475Z,10.17
2019-01-30T03:17:52.916Z,9.73
2019-01-30T03:21:55.491Z,10.30
2019-01-30T03:25:58.084Z,10.80
2019-01-30T03:30:00.782Z,11.77
2019-01-30T03:34:03.588Z,10.70
2019-01-30T03:38:06.364Z,10.33
2019-01-30T03:42:09.088Z,10.77
2019-01-30T03:46:11.602Z,11.07
2019-01-30T03:50:14.656Z,10.37
2019-01-30T03:54:17.103Z,10.43
2019-01-30T03:58:19.560Z,11.13
2019-01-30T04:02:22.086Z,11.50
2019-01-30T04:06:24.858Z,11.83
2019-01-30T04:10:27.579Z,11.03
2019-01-30T04:14:29.988Z,10.70
2019-01-30T04:18:32.605Z,10.73
2019-01-30T04:22:39.234Z,11.90
2019-01-30T04:26:42.069Z,10.63
2019-01-30T04:30:45.840Z,11.27
2019-01-30T04:34:48.801Z,10.90
2019-01-30T04:38:51.170Z,11.40
2019-01-30T04:42:54.117Z,11.10
2019-01-30T04:46:56.723Z,12.13
2019-01-30T04:50:59.222Z,10.50
2019-01-30T04:55:01.609Z,11.43
2019-01-30T04:59:04.138Z,11.50
2019-01-30T05:03:06.707Z,10.60
2019-01-30T05:07:09.192Z,11.63
2019-01-30T05:11:13.375Z,11.73
2019-01-30T05:15:18.070Z,12.40
2019-01-30T05:19:20.496Z,11.43
2019-01-30T05:23:23.261Z,10.93
2019-01-30T05:27:25.716Z,10.67
2019-01-30T05:31:28.418Z,10.57
2019-01-30T05:35:31.059Z,11.63
2019-01-30T05:39:33.621Z,10.90
2019-01-30T05:43:36.477Z,10.20
2019-01-30T05:47:38.976Z,11.80
2019-01-30T05:51:41.328Z,11.53
2019-01-30T05:55:47.182Z,11.33
2019-01-30T05:59:49.579Z,11.53
2019-01-30T06:03:52.068Z,10.93
2019-01-30T06:07:54.723Z,11.37
2019-01-30T06:11:57.236Z,11.53
2019-01-30T06:16:00.034Z,11.33
2019-01-30T06:20:02.950Z,11.00
2019-01-30T06:24:05.335Z,11.10
2019-01-30T06:28:07.843Z,10.33
2019-01-30T06:32:10.639Z,10.90
2019-01-30T06:36:13.322Z,11.57
2019-01-30T06:40:18.502Z,11.27
2019-01-30T06:44:20.973Z,11.43
2019-01-30T06:48:23.712Z,11.37
2019-01-30T06:52:26.245Z,11.53
2019-01-30T06:56:28.623Z,11.73
2019-01-30T07:00:31.322Z,10.20
2019-01-30T07:04:33.830Z,12.57
2019-01-30T07:08:36.252Z,12.87
2019-01-30T07:12:38.883Z,11.70
2019-01-30T07:16:41.474Z,12.23
2019-01-30T07:20:43.935Z,12.00
2019-01-30T07:24:46.321Z,10.83
2019-01-30T07:28:48.784Z,11.50
2019-01-30T07:32:51.338Z,11.73
2019-01-30T07:36:53.776Z,11.87
2019-01-30T07:40:56.210Z,12.67
2019-01-30T07:44:58.759Z,11.67
2019-01-30T07:49:01.272Z,12.07
2019-01-30T07:53:04.099Z,12.50
2019-01-30T07:57:06.576Z,13.63
2019-01-30T08:01:09.107Z,12.17
2019-01-30T08:05:13.920Z,11.70
2019-01-30T08:09:16.780Z,12.23
2019-01-30T08:13:19.552Z,13.20
2019-01-30T08:17:21.965Z,11.83
2019-01-30T08:21:24.750Z,12.20
2019-01-30T08:25:27.701Z,11.90
2019-01-30T08:29:30.761Z,13.13
2019-01-30T08:33:33.475Z,13.47
2019-01-30T08:37:38.474Z,12.63
2019-01-30T08:41:40.561Z,13.83
2019-01-30T08:45:43.235Z,14.97
2019-01-30T08:49:45.626Z,13.20
2019-01-30T08:53:48.441Z,13.57
2019-01-30T08:57:50.867Z,14.77
2019-01-30T09:01:53.312Z,14.33
2019-01-30T09:05:55.713Z,14.10
2019-01-30T09:09:58.271Z,13.40
2019-01-30T09:14:00.814Z,14.33
2019-01-30T09:18:03.296Z,13.50
2019-01-30T09:22:05.781Z,13.20
2019-01-30T09:26:08.315Z,11.27
2019-01-30T09:30:14.576Z,12.10
2019-01-30T09:34:17.237Z,13.37
2019-01-30T09:38:19.750Z,13.93
2019-01-30T09:42:22.225Z,13.83
2019-01-30T09:46:24.615Z,12.97
2019-01-30T09:50:27.160Z,13.13
2019-01-30T09:54:30.076Z,13.33
2019-01-30T09:58:32.610Z,14.00
2019-01-30T10:02:35.254Z,18.97
2019-01-30T10:06:37.889Z,23.30
2019-01-30T10:10:41.611Z,18.40
2019-01-30T10:14:44.113Z,16.13
2019-01-30T10:18:46.518Z,14.93
2019-01-30T10:22:49.107Z,14.53
2019-01-30T10:26:51.725Z,14.20
2019-01-30T10:30:54.254Z,14.30
2019-01-30T10:34:56.910Z,14.20
2019-01-30T10:38:59.544Z,13.33
2019-01-30T10:43:02.159Z,13.73
2019-01-30T10:47:04.694Z,15.37
2019-01-30T10:51:07.585Z,15.53
2019-01-30T10:55:13.067Z,14.73
2019-01-30T10:59:15.633Z,15.30
2019-01-30T11:03:18.425Z,15.67
2019-01-30T11:07:20.963Z,15.07
2019-01-30T11:11:23.526Z,14.77
2019-01-30T11:15:28.153Z,13.83
2019-01-30T11:19:30.838Z,15.03
2019-01-30T11:23:33.250Z,14.00
2019-01-30T11:27:35.705Z,14.00
2019-01-30T11:31:38.405Z,14.37
2019-01-30T11:35:41.049Z,14.47
2019-01-30T11:39:43.544Z,14.10
2019-01-30T11:43:46.047Z,13.47
2019-01-30T11:47:48.547Z,12.90
2019-01-30T11:51:51.017Z,14.67
2019-01-30T11:55:53.627Z,13.77
2019-01-30T11:59:56.250Z,15.07
2019-01-30T12:03:58.695Z,13.87
2019-01-30T12:08:01.143Z,13.97
2019-01-30T12:12:03.711Z,14.10
2019-01-30T12:16:06.129Z,14.33
2019-01-30T12:20:10.276Z,15.70
2019-01-30T12:24:12.654Z,14.60
2019-01-30T12:28:15.058Z,14.03
2019-01-30T12:32:17.550Z,14.50
2019-01-30T12:36:19.963Z,14.67
2019-01-30T12:40:22.702Z,14.73
2019-01-30T12:44:25.233Z,13.73
2019-01-30T12:48:28.688Z,14.00
2019-01-30T12:52:31.128Z,15.33
2019-01-30T12:56:35.325Z,16.07
2019-01-30T13:00:39.753Z,14.93
2019-01-30T13:04:42.342Z,15.70
2019-01-30T13:08:44.939Z,16.27
2019-01-30T13:12:47.543Z,15.60
2019-01-30T13:16:50.077Z,15.83
2019-01-30T13:20:52.584Z,15.70
2019-01-30T13:24:55.194Z,16.57
2019-01-30T13:28:57.696Z,16.10
2019-01-30T13:33:00.328Z,17.90
2019-01-30T13:37:02.849Z,16.47
2019-01-30T13:41:05.373Z,15.80
2019-01-30T13:45:09.196Z,16.30
2019-01-30T13:49:11.719Z,16.33
2019-01-30T13:53:14.504Z,16.30
2019-01-30T13:57:17.390Z,16.33
2019-01-30T14:01:19.900Z,16.33
2019-01-30T14:05:22.336Z,15.37
2019-01-30T14:09:24.778Z,16.60
2019-01-30T14:13:27.373Z,17.03
2019-01-30T14:17:32.256Z,15.93
2019-01-30T14:21:34.105Z,17.53
2019-01-30T14:25:36.726Z,18.10
2019-01-30T14:29:39.221Z,17.43
2019-01-30T14:33:41.962Z,15.33
2019-01-30T14:37:44.367Z,16.10
2019-01-30T14:41:47.430Z,16.90
2019-01-30T14:45:50.021Z,16.20
2019-01-30T14:49:52.791Z,16.00
2019-01-30T14:53:55.253Z,15.43
2019-01-30T14:57:57.971Z,16.03
2019-01-30T15:02:00.697Z,15.57
2019-01-30T15:06:03.265Z,16.77
2019-01-30T15:10:06.897Z,16.10
2019-01-30T15:14:09.779Z,15.30
2019-01-30T15:18:12.212Z,15.90
2019-01-30T15:22:14.670Z,15.03
2019-01-30T15:26:17.173Z,14.50
2019-01-30T15:30:22.131Z,17.20
2019-01-30T15:34:24.610Z,17.70
2019-01-30T15:38:27.241Z,16.73
2019-01-30T15:42:29.691Z,16.60
2019-01-30T15:46:32.250Z,15.47
2019-01-30T15:50:35.952Z,12.00
2019-01-30T15:54:38.743Z,15.90
2019-01-30T15:58:41.674Z,11.50
2019-01-30T16:02:44.445Z,16.13
2019-01-30T16:06:46.866Z,10.17
2019-01-30T16:10:49.551Z,7.30
2019-01-30T16:14:51.982Z,6.57
2019-01-30T16:18:54.532Z,6.87
2019-01-30T16:22:56.911Z,6.17
2019-01-30T16:26:59.358Z,6.43
2019-01-30T16:31:01.879Z,7.77
2019-01-30T16:35:04.584Z,6.97
2019-01-30T16:39:09.887Z,6.80
2019-01-30T16:43:13.004Z,6.63
2019-01-30T16:47:15.442Z,9.07
2019-01-30T16:51:17.947Z,8.93
2019-01-30T16:55:20.431Z,7.80
2019-01-30T16:59:23.842Z,10.00
2019-01-30T17:03:26.363Z,7.97
2019-01-30T17:07:29.016Z,8.13
2019-01-30T17:11:31.991Z,6.50
2019-01-30T17:15:35.734Z,6.07
2019-01-30T17:19:38.421Z,5.77
2019-01-30T17:23:41.011Z,6.83
2019-01-30T17:27:43.456Z,6.47
2019-01-30T17:31:45.977Z,6.37
2019-01-30T17:35:48.626Z,6.30
2019-01-30T17:39:51.169Z,6.03
2019-01-30T17:43:53.791Z,6.00
2019-01-30T17:47:56.244Z,6.80
2019-01-30T17:51:58.656Z,6.50
2019-01-30T17:56:01.196Z,6.77
2019-01-30T18:00:09.009Z,5.57
2019-01-30T18:04:12.347Z,6.00
2019-01-30T18:08:14.969Z,6.43
2019-01-30T18:12:17.572Z,5.70
2019-01-30T18:16:19.937Z,5.57
2019-01-30T18:20:22.612Z,6.20
2019-01-30T18:24:25.087Z,5.90
2019-01-30T18:28:27.671Z,6.17
2019-01-30T18:32:30.087Z,5.63
2019-01-30T18:36:40.672Z,5.50
2019-01-30T18:40:36.698Z,5.90
2019-01-30T18:44:39.232Z,5.47
2019-01-30T18:48:41.928Z,6.20
2019-01-30T18:52:45.731Z,5.33
2019-01-30T18:56:48.273Z,5.87
2019-01-30T19:00:50.823Z,5.33
2019-01-30T19:04:53.262Z,5.03
2019-01-30T19:08:55.883Z,5.30
2019-01-30T19:12:58.729Z,5.17
2019-01-30T19:17:01.227Z,5.23
2019-01-30T19:21:03.807Z,5.27
2019-01-30T19:25:06.599Z,5.17
2019-01-30T19:29:10.321Z,4.87
2019-01-30T19:33:13.145Z,4.60
2019-01-30T19:37:15.691Z,5.40
2019-01-30T19:41:19.153Z,4.80
2019-01-30T19:45:23.155Z,5.37
2019-01-30T19:49:25.635Z,5.57
2019-01-30T19:53:28.425Z,5.63
2019-01-30T19:57:31.030Z,5.07
2019-01-30T20:01:36.336Z,5.03
2019-01-30T20:05:37.881Z,5.30
2019-01-30T20:09:40.315Z,5.60
2019-01-30T20:13:43.353Z,5.57
2019-01-30T20:17:46.774Z,5.30
2019-01-30T20:21:49.434Z,4.93
2019-01-30T20:25:51.919Z,5.80
2019-01-30T20:29:54.714Z,5.43
2019-01-30T20:33:57.441Z,5.13
2019-01-30T20:37:59.936Z,5.53
2019-01-30T20:42:02.562Z,5.10
2019-01-30T20:46:05.176Z,4.80
2019-01-30T20:50:10.143Z,5.30
2019-01-30T20:54:13.096Z,4.70
2019-01-30T20:58:15.871Z,5.30
2019-01-30T21:02:18.618Z,5.50
2019-01-30T21:06:21.171Z,4.90
2019-01-30T21:10:26.136Z,4.90
2019-01-30T21:14:28.879Z,4.80
2019-01-30T21:18:31.418Z,5.00
2019-01-30T21:22:33.860Z,5.70
2019-01-30T21:26:36.460Z,5.90
2019-01-30T21:30:39.903Z,5.73
2019-01-30T21:34:42.609Z,5.57
2019-01-30T21:38:46.252Z,6.83
2019-01-30T21:42:48.806Z,5.97
2019-01-30T21:46:51.391Z,5.73
2019-01-30T21:50:53.887Z,6.03
2019-01-30T21:54:57.854Z,5.80
2019-01-30T21:59:00.523Z,5.63
2019-01-30T22:03:03.187Z,6.47
2019-01-30T22:07:06.820Z,6.60
2019-01-30T22:11:09.571Z,6.60
2019-01-30T22:15:13.196Z,5.63
2019-01-30T22:19:15.833Z,5.40
2019-01-30T22:23:18.374Z,6.43
2019-01-30T22:27:20.964Z,6.10
2019-01-30T22:31:23.715Z,6.60
2019-01-30T22:35:26.460Z,6.40
2019-01-30T22:39:29.239Z,5.47
2019-01-30T22:43:31.570Z,5.83
2019-01-30T22:47:34.185Z,6.97
2019-01-30T22:51:36.600Z,6.70
2019-01-30T22:55:39.593Z,6.17
2019-01-30T22:59:42.207Z,6.80
2019-01-30T23:03:49.514Z,7.00
2019-01-30T23:08:23.209Z,6.10
2019-01-30T23:13:10.267Z,6.73
2019-01-30T23:17:46.916Z,6.77
2019-01-30T23:22:12.642Z,6.37
2019-01-30T23:26:51.900Z,7.47
2019-01-30T23:31:39.406Z,7.10
2019-01-30T23:36:08.676Z,6.67
2019-01-30T23:40:47.702Z,7.67
2019-01-30T23:45:34.211Z,8.13
2019-01-30T23:50:12.449Z,8.00
2019-01-30T23:54:58.861Z,7.60
2019-01-30T23:59:42.923Z,7.63
